createdAt,value
2022-10-12T00:00:38.854Z,0.90
2022-10-12T00:02:42.555Z,0.90
2022-10-12T00:04:46.072Z,0.93
2022-10-12T00:06:51.233Z,1.10
2022-10-12T00:08:56.470Z,0.55
2022-10-12T00:11:00.090Z,0.82
2022-10-12T00:13:03.727Z,0.98
2022-10-12T00:15:08.044Z,0.70
2022-10-12T00:17:11.520Z,0.65
2022-10-12T00:19:15.800Z,0.70
2022-10-12T00:21:20.297Z,0.50
2022-10-12T00:23:25.336Z,0.80
2022-10-12T00:25:28.990Z,0.93
2022-10-12T00:27:32.707Z,0.70
2022-10-12T00:29:36.543Z,0.80
2022-10-12T00:31:40.003Z,0.90
2022-10-12T00:33:44.403Z,0.95
2022-10-12T00:35:48.245Z,0.57
2022-10-12T00:37:56.193Z,0.80
2022-10-12T00:40:03.060Z,0.63
2022-10-12T00:42:07.569Z,0.82
2022-10-12T00:44:36.374Z,0.80
2022-10-12T00:46:46.249Z,0.70
2022-10-12T00:48:54.630Z,0.70
2022-10-12T00:51:02.376Z,1.10
2022-10-12T00:53:11.022Z,0.77
2022-10-12T00:55:19.629Z,0.80
2022-10-12T00:57:25.335Z,0.60
2022-10-12T00:59:33.828Z,0.50
2022-10-12T01:01:40.335Z,0.70
2022-10-12T01:03:45.094Z,0.60
2022-10-12T01:05:51.065Z,0.70
2022-10-12T01:07:56.110Z,0.60
2022-10-12T01:10:01.053Z,0.65
2022-10-12T01:12:09.379Z,0.60
2022-10-12T01:14:13.623Z,0.65
2022-10-12T01:16:23.960Z,0.50
2022-10-12T01:18:38.529Z,0.50
2022-10-12T01:21:08.528Z,0.50
2022-10-12T01:23:31.183Z,0.35
2022-10-12T01:25:49.912Z,0.30
2022-10-12T01:28:03.216Z,0.50
2022-10-12T01:32:24.142Z,0.50
2022-10-12T01:34:34.962Z,0.60
2022-10-12T01:36:44.466Z,0.50
2022-10-12T01:38:55.427Z,0.70
2022-10-12T01:41:05.482Z,0.73
2022-10-12T01:43:10.007Z,0.70
2022-10-12T01:45:18.599Z,0.80
2022-10-12T01:47:22.565Z,1.00
2022-10-12T01:49:29.199Z,1.38
2022-10-12T01:51:42.926Z,1.25
2022-10-12T01:53:51.725Z,1.00
2022-10-12T01:56:03.147Z,1.27
2022-10-12T01:58:23.891Z,1.27
2022-10-12T02:00:29.151Z,1.00
2022-10-12T02:02:46.530Z,0.90
2022-10-12T02:04:54.118Z,1.17
2022-10-12T02:07:05.282Z,1.08
2022-10-12T02:09:16.627Z,1.33
2022-10-12T02:11:24.603Z,1.80
2022-10-12T02:13:33.507Z,0.93
2022-10-12T02:15:41.782Z,0.90
2022-10-12T02:17:49.671Z,1.65
2022-10-12T02:19:58.188Z,0.63
2022-10-12T02:22:04.561Z,0.90
2022-10-12T02:24:12.110Z,0.90
2022-10-12T02:26:18.047Z,0.82
2022-10-12T02:28:26.566Z,1.00
2022-10-12T02:30:47.827Z,1.02
2022-10-12T02:32:58.481Z,1.00
2022-10-12T02:35:10.282Z,0.93
2022-10-12T02:37:28.885Z,0.95
2022-10-12T02:39:39.460Z,0.90
2022-10-12T02:41:47.745Z,0.90
2022-10-12T02:43:58.021Z,0.82
2022-10-12T02:46:05.537Z,0.82
2022-10-12T02:48:13.735Z,1.23
2022-10-12T02:50:20.125Z,0.70
2022-10-12T02:52:25.953Z,0.57
2022-10-12T02:54:30.113Z,0.80
2022-10-12T02:56:33.890Z,0.63
2022-10-12T02:58:39.226Z,0.70
2022-10-12T03:00:43.745Z,0.60
2022-10-12T03:02:50.645Z,0.75
2022-10-12T03:04:58.235Z,0.82
2022-10-12T03:07:02.090Z,0.60
2022-10-12T03:09:05.491Z,0.38
2022-10-12T03:11:10.647Z,1.17
2022-10-12T03:13:13.936Z,0.60
2022-10-12T03:15:17.431Z,0.77
2022-10-12T03:17:20.648Z,0.45
2022-10-12T03:19:25.494Z,0.50
2022-10-12T03:21:28.718Z,0.63
2022-10-12T03:23:32.494Z,0.50
2022-10-12T03:25:35.701Z,1.13
2022-10-12T03:27:39.269Z,0.30
2022-10-12T03:29:43.061Z,0.40
2022-10-12T03:31:46.338Z,0.65
2022-10-12T03:33:50.067Z,0.40
2022-10-12T03:35:54.927Z,0.30
2022-10-12T03:37:58.263Z,0.20
2022-10-12T03:40:01.520Z,0.25
2022-10-12T03:42:05.177Z,0.35
2022-10-12T03:44:08.521Z,0.40
2022-10-12T03:46:12.442Z,0.30
2022-10-12T03:48:15.718Z,0.38
2022-10-12T03:50:19.338Z,0.38
2022-10-12T03:52:24.041Z,0.55
2022-10-12T03:54:27.375Z,0.17
2022-10-12T03:56:30.639Z,0.40
2022-10-12T03:58:34.546Z,0.32
2022-10-12T04:00:37.908Z,0.30
2022-10-12T04:02:41.515Z,0.28
2022-10-12T04:04:45.036Z,0.30
2022-10-12T04:06:48.352Z,0.17
2022-10-12T04:08:53.114Z,0.10
2022-10-12T04:10:56.443Z,0.20
2022-10-12T04:12:59.802Z,0.10
2022-10-12T04:15:03.137Z,0.10
2022-10-12T04:17:06.481Z,0.00
2022-10-12T04:19:13.356Z,0.10
2022-10-12T04:21:18.252Z,0.10
2022-10-12T04:23:21.634Z,0.10
2022-10-12T04:25:30.046Z,0.15
2022-10-12T04:27:33.802Z,0.25
2022-10-12T04:29:37.268Z,0.40
2022-10-12T04:31:40.679Z,0.00
2022-10-12T04:33:44.269Z,0.10
2022-10-12T04:35:47.486Z,0.10
2022-10-12T04:37:50.960Z,0.10
2022-10-12T04:39:54.453Z,0.00
2022-10-12T04:41:59.287Z,0.10
2022-10-12T04:44:02.686Z,0.10
2022-10-12T04:46:06.312Z,0.32
2022-10-12T04:48:09.721Z,0.08
2022-10-12T04:50:13.670Z,0.20
2022-10-12T04:52:17.295Z,0.20
2022-10-12T04:54:21.493Z,0.20
2022-10-12T04:56:25.458Z,0.22
2022-10-12T04:58:30.529Z,0.10
2022-10-12T05:00:33.907Z,0.40
2022-10-12T05:02:37.233Z,0.00
2022-10-12T05:04:40.564Z,0.40
2022-10-12T05:06:44.063Z,0.10
2022-10-12T05:08:47.527Z,0.00
2022-10-12T05:10:51.007Z,0.10
2022-10-12T05:12:54.258Z,0.08
2022-10-12T05:14:59.002Z,0.00
2022-10-12T05:17:02.233Z,0.08
2022-10-12T05:19:05.506Z,0.20
2022-10-12T05:21:08.981Z,0.10
2022-10-12T05:23:13.156Z,0.08
2022-10-12T05:25:16.990Z,0.13
2022-10-12T05:27:21.151Z,0.38
2022-10-12T05:29:24.706Z,0.10
2022-10-12T05:31:29.522Z,0.00
2022-10-12T05:33:32.919Z,0.00
2022-10-12T05:35:36.266Z,0.10
2022-10-12T05:37:39.915Z,0.00
2022-10-12T05:39:43.925Z,0.00
2022-10-12T05:41:47.367Z,0.08
2022-10-12T05:43:50.645Z,0.10
2022-10-12T05:45:54.420Z,0.10
2022-10-12T05:47:59.651Z,0.00
2022-10-12T05:50:03.110Z,0.00
2022-10-12T05:52:06.859Z,0.40
2022-10-12T05:54:10.600Z,0.50
2022-10-12T05:56:14.900Z,0.10
2022-10-12T05:58:18.589Z,0.00
2022-10-12T06:00:22.181Z,0.00
2022-10-12T06:02:25.652Z,0.10
2022-10-12T06:04:30.430Z,0.00
2022-10-12T06:06:34.596Z,0.10
2022-10-12T06:08:38.088Z,0.08
2022-10-12T06:10:46.644Z,0.00
2022-10-12T06:12:50.214Z,0.00
2022-10-12T06:14:53.813Z,0.00
2022-10-12T06:16:57.603Z,0.10
2022-10-12T06:19:01.418Z,0.00
2022-10-12T06:21:32.062Z,0.00
2022-10-12T06:23:29.503Z,0.73
2022-10-12T06:25:33.224Z,0.08
2022-10-12T06:27:36.631Z,0.10
2022-10-12T06:29:40.213Z,0.00
2022-10-12T06:31:47.681Z,0.00
2022-10-12T06:33:54.150Z,0.10
2022-10-12T06:35:57.888Z,0.10
2022-10-12T06:38:03.080Z,0.30
2022-10-12T06:40:07.726Z,0.10
2022-10-12T06:42:12.266Z,0.00
2022-10-12T06:44:26.198Z,0.10
2022-10-12T06:46:30.109Z,0.03
2022-10-12T06:48:33.874Z,0.10
2022-10-12T06:50:39.102Z,0.00
2022-10-12T06:52:44.043Z,0.10
2022-10-12T06:54:54.585Z,0.10
2022-10-12T06:57:00.686Z,0.00
2022-10-12T06:59:04.765Z,0.00
2022-10-12T07:01:10.918Z,0.10
2022-10-12T07:03:15.080Z,0.00
2022-10-12T07:05:19.163Z,0.15
2022-10-12T07:07:22.738Z,0.10
2022-10-12T07:09:26.369Z,0.10
2022-10-12T07:11:31.268Z,0.28
2022-10-12T07:13:35.493Z,0.10
2022-10-12T07:15:39.177Z,0.20
2022-10-12T07:17:42.980Z,0.30
2022-10-12T07:19:46.624Z,0.20
2022-10-12T07:21:50.444Z,0.17
2022-10-12T07:23:54.386Z,0.10
2022-10-12T07:25:58.133Z,0.20
2022-10-12T07:28:05.535Z,0.15
2022-10-12T07:30:11.848Z,0.10
2022-10-12T07:32:15.545Z,0.10
2022-10-12T07:34:19.400Z,0.15
2022-10-12T07:36:24.579Z,0.20
2022-10-12T07:38:28.328Z,0.10
2022-10-12T07:40:33.252Z,0.40
2022-10-12T07:42:48.874Z,0.30
2022-10-12T07:45:02.660Z,0.30
2022-10-12T07:47:06.652Z,0.30
2022-10-12T07:49:12.956Z,0.30
2022-10-12T07:51:17.536Z,0.30
2022-10-12T07:53:21.359Z,0.30
2022-10-12T07:55:25.125Z,0.30
2022-10-12T07:57:29.085Z,0.32
2022-10-12T07:59:32.650Z,0.32
2022-10-12T08:01:38.097Z,0.40
2022-10-12T08:03:41.988Z,0.50
2022-10-12T08:05:45.773Z,0.50
2022-10-12T08:07:50.016Z,0.40
2022-10-12T08:09:53.639Z,0.60
2022-10-12T08:11:57.785Z,0.68
2022-10-12T08:14:04.763Z,0.50
2022-10-12T08:16:12.261Z,0.30
2022-10-12T08:18:17.350Z,0.35
2022-10-12T08:20:21.075Z,0.30
2022-10-12T08:22:24.856Z,0.20
2022-10-12T08:24:28.809Z,0.38
2022-10-12T08:26:33.391Z,0.40
2022-10-12T08:28:37.553Z,0.35
2022-10-12T08:30:41.383Z,0.35
2022-10-12T08:32:44.956Z,0.50
2022-10-12T08:34:50.289Z,0.50
2022-10-12T08:36:53.939Z,0.50
2022-10-12T08:38:57.496Z,0.40
2022-10-12T08:41:15.825Z,0.80
2022-10-12T08:43:31.813Z,0.43
2022-10-12T08:45:44.278Z,0.70
2022-10-12T08:47:52.746Z,1.00
2022-10-12T08:49:57.837Z,0.50
2022-10-12T08:52:06.721Z,1.00
2022-10-12T08:54:15.194Z,0.82
2022-10-12T08:56:19.542Z,0.60
2022-10-12T08:58:27.580Z,0.50
2022-10-12T09:00:34.995Z,0.93
2022-10-12T09:02:55.169Z,0.70
2022-10-12T09:05:03.110Z,1.73
2022-10-12T09:07:12.257Z,0.77
2022-10-12T09:09:43.122Z,2.17
2022-10-12T09:11:59.963Z,0.73
2022-10-12T09:14:08.897Z,0.85
2022-10-12T09:16:22.992Z,0.95
2022-10-12T09:18:40.415Z,0.95
2022-10-12T09:20:49.796Z,1.00
2022-10-12T09:22:58.422Z,0.88
2022-10-12T09:25:03.689Z,1.25
2022-10-12T09:27:16.010Z,0.88
2022-10-12T09:29:25.934Z,1.02
2022-10-12T09:31:43.753Z,1.10
2022-10-12T09:33:53.151Z,1.60
2022-10-12T09:35:59.543Z,1.10
2022-10-12T09:38:03.774Z,1.33
2022-10-12T09:40:08.913Z,0.90
2022-10-12T09:42:12.792Z,1.20
2022-10-12T09:44:28.453Z,0.98
2022-10-12T09:46:40.599Z,1.08
2022-10-12T09:48:59.076Z,1.20
2022-10-12T09:51:05.727Z,0.98
2022-10-12T09:53:22.378Z,1.35
2022-10-12T09:55:28.596Z,1.10
2022-10-12T09:57:35.270Z,1.45
2022-10-12T09:59:45.274Z,1.27
2022-10-12T10:01:59.864Z,1.70
2022-10-12T10:04:17.942Z,1.52
2022-10-12T10:06:27.004Z,1.08
2022-10-12T10:08:30.719Z,1.40
2022-10-12T10:10:35.674Z,1.63
2022-10-12T10:12:45.325Z,1.35
2022-10-12T10:14:49.465Z,1.30
2022-10-12T10:16:56.017Z,1.60
2022-10-12T10:19:02.413Z,1.60
2022-10-12T10:21:09.188Z,1.48
2022-10-12T10:23:27.327Z,1.20
2022-10-12T10:25:31.790Z,1.45
2022-10-12T10:27:37.888Z,1.50
2022-10-12T10:29:43.966Z,1.60
2022-10-12T10:31:48.403Z,1.40
2022-10-12T10:34:12.715Z,1.73
2022-10-12T10:36:21.474Z,1.80
2022-10-12T10:38:27.457Z,1.75
2022-10-12T10:40:33.261Z,1.42
2022-10-12T10:42:37.525Z,1.50
2022-10-12T10:46:47.998Z,1.42
2022-10-12T10:48:56.818Z,2.00
2022-10-12T10:51:02.667Z,1.30
2022-10-12T10:53:15.234Z,1.50
2022-10-12T10:55:28.640Z,1.60
2022-10-12T10:57:34.994Z,1.42
2022-10-12T10:59:43.828Z,1.50
2022-10-12T11:01:55.903Z,1.80
2022-10-12T11:04:03.165Z,2.00
2022-10-12T11:06:18.111Z,1.50
2022-10-12T11:08:26.442Z,1.55
2022-10-12T11:10:35.760Z,2.05
2022-10-12T11:12:46.254Z,1.60
2022-10-12T11:14:53.559Z,1.63
2022-10-12T11:17:00.635Z,2.13
2022-10-12T11:19:14.576Z,1.88
2022-10-12T11:21:22.700Z,1.77
2022-10-12T11:23:36.619Z,1.90
2022-10-12T11:25:50.566Z,1.85
2022-10-12T11:27:56.617Z,1.92
2022-10-12T11:30:09.290Z,1.75
2022-10-12T11:32:23.406Z,1.75
2022-10-12T11:34:29.190Z,2.15
2022-10-12T11:36:36.146Z,2.40
2022-10-12T11:38:44.753Z,2.10
2022-10-12T11:41:31.454Z,2.40
2022-10-12T11:43:23.591Z,2.40
2022-10-12T11:45:39.359Z,2.03
2022-10-12T11:47:47.553Z,2.10
2022-10-12T11:49:58.369Z,2.90
2022-10-12T11:52:06.891Z,2.47
2022-10-12T11:54:22.135Z,2.45
2022-10-12T11:56:31.023Z,2.00
2022-10-12T11:58:59.909Z,2.55
2022-10-12T12:01:21.238Z,2.08
2022-10-12T12:03:32.122Z,2.78
2022-10-12T12:05:36.008Z,2.20
2022-10-12T12:07:42.906Z,5.10
2022-10-12T12:09:50.572Z,2.75
2022-10-12T12:12:19.875Z,2.28
2022-10-12T12:14:57.097Z,2.25
2022-10-12T12:17:16.845Z,2.30
2022-10-12T12:19:39.409Z,2.83
2022-10-12T12:22:29.116Z,2.28
2022-10-12T12:24:32.943Z,2.38
2022-10-12T12:26:36.902Z,2.03
2022-10-12T12:28:44.480Z,2.55
2022-10-12T12:30:59.584Z,2.25
2022-10-12T12:33:06.335Z,2.45
2022-10-12T12:35:24.694Z,2.15
2022-10-12T12:37:34.140Z,3.28
2022-10-12T12:39:41.818Z,2.30
2022-10-12T12:41:57.721Z,1.88
2022-10-12T12:44:06.954Z,2.17
2022-10-12T12:46:13.476Z,2.28
2022-10-12T12:49:01.488Z,2.60
2022-10-12T12:51:09.761Z,2.03
2022-10-12T12:53:21.544Z,2.35
2022-10-12T12:55:45.540Z,2.45
2022-10-12T12:58:10.861Z,3.63
2022-10-12T13:00:20.977Z,2.20
2022-10-12T13:02:52.340Z,2.58
2022-10-12T13:05:28.401Z,2.63
2022-10-12T13:08:04.058Z,3.17
2022-10-12T13:10:33.260Z,2.45
2022-10-12T13:13:01.774Z,2.63
2022-10-12T13:15:30.199Z,2.50
2022-10-12T13:17:59.642Z,2.10
2022-10-12T13:20:13.192Z,2.40
2022-10-12T13:22:28.488Z,2.20
2022-10-12T13:24:39.205Z,2.72
2022-10-12T13:26:46.815Z,1.98
2022-10-12T13:28:52.442Z,1.75
2022-10-12T13:31:02.289Z,2.70
2022-10-12T13:33:17.612Z,2.05
2022-10-12T13:35:32.886Z,2.00
2022-10-12T13:37:37.371Z,2.17
2022-10-12T13:39:43.535Z,2.30
2022-10-12T13:41:49.352Z,2.00
2022-10-12T13:43:57.316Z,2.33
2022-10-12T13:46:03.782Z,2.30
2022-10-12T13:48:08.470Z,2.47
2022-10-12T13:50:20.379Z,2.25
2022-10-12T13:52:32.134Z,2.72
2022-10-12T13:54:40.847Z,5.22
2022-10-12T13:56:46.909Z,2.58
2022-10-12T13:58:56.760Z,1.95
2022-10-12T14:01:03.864Z,2.65
2022-10-12T14:03:08.870Z,2.72
2022-10-12T14:05:19.437Z,2.15
2022-10-12T14:07:27.958Z,2.33
2022-10-12T14:09:41.712Z,1.85
2022-10-12T14:11:47.343Z,2.00
2022-10-12T14:13:52.770Z,1.85
2022-10-12T14:15:58.029Z,2.13
2022-10-12T14:18:04.228Z,1.50
2022-10-12T14:20:20.330Z,2.15
2022-10-12T14:22:28.213Z,1.90
2022-10-12T14:24:32.747Z,1.60
2022-10-12T14:26:41.621Z,1.60
2022-10-12T14:28:46.174Z,2.10
2022-10-12T14:30:53.439Z,1.85
2022-10-12T14:33:10.625Z,1.98
2022-10-12T14:35:23.506Z,2.30
2022-10-12T14:37:32.048Z,2.42
2022-10-12T14:39:36.788Z,2.42
2022-10-12T14:41:52.658Z,2.10
2022-10-12T14:44:10.657Z,2.05
2022-10-12T14:46:16.152Z,2.47
2022-10-12T14:48:23.739Z,2.08
2022-10-12T14:50:31.236Z,2.75
2022-10-12T14:52:41.811Z,1.92
2022-10-12T14:54:46.736Z,2.08
2022-10-12T14:56:50.950Z,2.53
2022-10-12T14:58:56.012Z,2.15
2022-10-12T15:01:00.390Z,2.00
2022-10-12T15:03:05.525Z,2.08
2022-10-12T15:05:12.273Z,1.90
2022-10-12T15:07:23.270Z,1.67
2022-10-12T15:09:27.790Z,1.85
2022-10-12T15:11:33.117Z,1.80
2022-10-12T15:13:37.934Z,2.05
2022-10-12T15:15:44.900Z,2.20
2022-10-12T15:17:49.134Z,2.08
2022-10-12T15:19:54.802Z,1.90
2022-10-12T15:21:59.614Z,2.25
2022-10-12T15:24:15.224Z,1.95
2022-10-12T15:26:20.386Z,2.08
2022-10-12T15:28:25.511Z,2.47
2022-10-12T15:30:30.113Z,2.58
2022-10-12T15:32:34.784Z,2.33
2022-10-12T15:34:39.878Z,2.33
2022-10-12T15:36:44.268Z,2.28
2022-10-12T15:38:48.662Z,2.53
2022-10-12T15:40:56.571Z,3.30
2022-10-12T15:43:01.496Z,2.83
2022-10-12T15:45:17.795Z,1.90
2022-10-12T15:47:21.898Z,3.03
2022-10-12T15:49:26.345Z,2.38
2022-10-12T15:51:30.574Z,2.40
2022-10-12T15:53:35.163Z,2.55
2022-10-12T15:55:40.211Z,2.03
2022-10-12T15:57:47.355Z,2.20
2022-10-12T15:59:52.807Z,2.30
2022-10-12T16:01:57.390Z,2.45
2022-10-12T16:04:01.771Z,2.03
2022-10-12T16:06:08.951Z,1.83
2022-10-12T16:08:13.635Z,2.10
2022-10-12T16:10:20.351Z,2.35
2022-10-12T16:12:24.545Z,2.38
2022-10-12T16:14:31.082Z,2.45
2022-10-12T16:16:35.571Z,2.97
2022-10-12T16:18:40.700Z,2.10
2022-10-12T16:20:47.581Z,1.83
2022-10-12T16:22:56.274Z,2.67
2022-10-12T16:25:00.814Z,1.77
2022-10-12T16:27:05.235Z,1.95
2022-10-12T16:29:09.681Z,2.10
2022-10-12T16:31:18.004Z,2.50
2022-10-12T16:33:22.374Z,2.13
2022-10-12T16:35:26.701Z,2.35
2022-10-12T16:37:31.447Z,2.67
2022-10-12T16:39:36.040Z,2.10
2022-10-12T16:41:40.107Z,2.47
2022-10-12T16:43:45.330Z,2.08
2022-10-12T16:45:57.686Z,3.28
2022-10-12T16:48:04.151Z,3.20
2022-10-12T16:50:09.338Z,2.30
2022-10-12T16:52:13.999Z,5.13
2022-10-12T16:54:18.909Z,6.18
2022-10-12T16:56:23.594Z,4.55
2022-10-12T16:58:27.788Z,4.47
2022-10-12T17:00:32.072Z,3.78
2022-10-12T17:02:36.162Z,3.33
2022-10-12T17:04:42.178Z,3.65
2022-10-12T17:06:46.855Z,3.65
2022-10-12T17:08:50.778Z,2.50
2022-10-12T17:10:55.796Z,2.50
2022-10-12T17:13:00.651Z,2.47
2022-10-12T17:15:05.859Z,2.92
2022-10-12T17:17:10.517Z,3.45
2022-10-12T17:19:15.599Z,3.67
2022-10-12T17:21:20.888Z,2.65
2022-10-12T17:23:24.899Z,2.80
2022-10-12T17:25:28.668Z,2.58
2022-10-12T17:27:32.561Z,3.13
2022-10-12T17:29:37.214Z,3.28
2022-10-12T17:31:41.398Z,2.90
2022-10-12T17:33:45.067Z,5.45
2022-10-12T17:35:50.834Z,3.45
2022-10-12T17:37:57.180Z,3.42
2022-10-12T17:40:01.114Z,3.92
2022-10-12T17:42:06.398Z,3.35
2022-10-12T17:44:11.593Z,3.58
2022-10-12T17:46:20.177Z,4.30
2022-10-12T17:48:26.675Z,11.48
2022-10-12T17:50:30.544Z,6.65
2022-10-12T17:52:40.063Z,42.35
2022-10-12T17:54:48.688Z,6.65
2022-10-12T17:56:52.582Z,20.60
2022-10-12T17:58:57.273Z,12.68
2022-10-12T18:01:06.324Z,4.60
2022-10-12T18:03:11.762Z,4.30
2022-10-12T18:05:15.753Z,7.85
2022-10-12T18:07:20.227Z,4.88
2022-10-12T18:09:24.163Z,9.45
2022-10-12T18:11:30.224Z,10.93
2022-10-12T18:13:35.194Z,11.90
2022-10-12T18:15:44.178Z,4.85
2022-10-12T18:17:48.613Z,5.13
2022-10-12T18:19:52.649Z,4.40
2022-10-12T18:21:56.732Z,4.45
2022-10-12T18:24:03.890Z,4.90
2022-10-12T18:26:10.007Z,5.10
2022-10-12T18:28:16.235Z,8.50
2022-10-12T18:30:24.852Z,7.78
2022-10-12T18:32:28.606Z,6.05
2022-10-12T18:34:36.495Z,5.35
2022-10-12T18:36:43.001Z,5.13
2022-10-12T18:38:46.678Z,7.45
2022-10-12T18:40:50.381Z,5.05
2022-10-12T18:42:54.116Z,5.00
2022-10-12T18:44:59.198Z,5.50
2022-10-12T18:47:03.058Z,5.07
2022-10-12T18:49:09.587Z,5.22
2022-10-12T18:51:19.693Z,6.82
2022-10-12T18:53:27.570Z,5.22
2022-10-12T18:55:31.669Z,5.57
2022-10-12T18:57:39.807Z,5.88
2022-10-12T18:59:44.782Z,5.88
2022-10-12T19:01:50.832Z,5.45
2022-10-12T19:03:57.155Z,7.32
2022-10-12T19:06:10.217Z,5.65
2022-10-12T19:08:13.963Z,5.50
2022-10-12T19:10:19.042Z,6.78
2022-10-12T19:12:23.571Z,27.20
2022-10-12T19:14:28.108Z,28.92
2022-10-12T19:16:32.823Z,18.65
2022-10-12T19:18:41.618Z,13.35
2022-10-12T19:20:45.942Z,7.32
2022-10-12T19:22:50.584Z,7.65
2022-10-12T19:24:55.017Z,6.95
2022-10-12T19:27:00.899Z,5.47
2022-10-12T19:29:06.481Z,6.30
2022-10-12T19:31:12.979Z,5.70
2022-10-12T19:33:17.989Z,5.68
2022-10-12T19:35:24.909Z,6.05
2022-10-12T19:37:28.911Z,6.60
2022-10-12T19:39:33.654Z,6.20
2022-10-12T19:41:38.347Z,5.82
2022-10-12T19:43:43.568Z,5.13
2022-10-12T19:45:47.939Z,5.57
2022-10-12T19:47:52.279Z,9.05
2022-10-12T19:49:56.651Z,16.30
2022-10-12T19:52:04.011Z,10.00
2022-10-12T19:54:08.281Z,12.68
2022-10-12T19:56:22.418Z,15.35
2022-10-12T19:58:29.683Z,14.75
2022-10-12T20:00:38.437Z,14.40
2022-10-12T20:02:45.633Z,13.43
2022-10-12T20:04:56.011Z,20.25
2022-10-12T20:07:02.840Z,19.77
2022-10-12T20:09:08.934Z,17.50
2022-10-12T20:11:18.454Z,18.77
2022-10-12T20:13:26.521Z,17.83
2022-10-12T20:15:33.909Z,15.18
2022-10-12T20:17:39.292Z,12.10
2022-10-12T20:19:43.778Z,12.70
2022-10-12T20:21:47.778Z,11.75
2022-10-12T20:23:54.379Z,11.38
2022-10-12T20:25:59.152Z,12.48
2022-10-12T20:28:04.283Z,11.90
2022-10-12T20:30:10.412Z,12.27
2022-10-12T20:32:15.871Z,11.13
2022-10-12T20:34:20.861Z,11.07
2022-10-12T20:36:26.919Z,11.23
2022-10-12T20:38:31.604Z,13.07
2022-10-12T20:40:37.071Z,12.73
2022-10-12T20:42:44.668Z,12.10
2022-10-12T20:44:53.241Z,12.35
2022-10-12T20:46:57.529Z,9.55
2022-10-12T20:49:03.732Z,13.18
2022-10-12T20:51:09.099Z,12.32
2022-10-12T20:53:14.228Z,15.25
2022-10-12T20:55:18.328Z,11.38
2022-10-12T20:57:31.186Z,11.52
2022-10-12T20:59:42.390Z,10.73
2022-10-12T21:01:47.784Z,11.90
2022-10-12T21:03:53.839Z,12.48
2022-10-12T21:05:58.396Z,12.88
2022-10-12T21:08:03.132Z,12.52
2022-10-12T21:10:08.907Z,12.30
2022-10-12T21:12:13.352Z,12.82
2022-10-12T21:14:19.656Z,14.85
2022-10-12T21:16:23.767Z,13.45
2022-10-12T21:18:31.767Z,12.93
2022-10-12T21:20:41.076Z,12.27
2022-10-12T21:22:54.544Z,12.32
2022-10-12T21:25:00.189Z,13.07
2022-10-12T21:27:09.001Z,12.30
2022-10-12T21:29:13.886Z,12.00
2022-10-12T21:31:21.842Z,15.90
2022-10-12T21:33:28.614Z,14.50
2022-10-12T21:35:32.654Z,12.80
2022-10-12T21:37:37.041Z,13.13
2022-10-12T21:39:40.755Z,12.25
2022-10-12T21:41:45.039Z,12.38
2022-10-12T21:43:50.486Z,12.45
2022-10-12T21:45:54.813Z,12.80
2022-10-12T21:48:00.801Z,12.20
2022-10-12T21:50:08.500Z,11.27
2022-10-12T21:52:12.575Z,10.68
2022-10-12T21:54:16.869Z,12.75
2022-10-12T21:56:23.248Z,11.13
2022-10-12T21:58:27.236Z,11.23
2022-10-12T22:00:31.364Z,11.00
2022-10-12T22:02:35.147Z,9.98
2022-10-12T22:04:40.616Z,9.90
2022-10-12T22:06:45.065Z,9.38
2022-10-12T22:08:52.387Z,10.95
2022-10-12T22:10:57.514Z,10.50
2022-10-12T22:13:01.732Z,10.02
2022-10-12T22:15:06.370Z,9.63
2022-10-12T22:17:10.435Z,9.95
2022-10-12T22:19:19.224Z,9.45
2022-10-12T22:21:24.445Z,9.88
2022-10-12T22:23:28.530Z,9.50
2022-10-12T22:25:33.690Z,8.98
2022-10-12T22:27:37.549Z,9.18
2022-10-12T22:29:41.576Z,8.70
2022-10-12T22:31:46.642Z,8.52
2022-10-12T22:33:52.477Z,7.63
2022-10-12T22:35:56.886Z,7.00
2022-10-12T22:38:02.049Z,6.72
2022-10-12T22:40:06.659Z,6.75
2022-10-12T22:42:10.527Z,6.72
2022-10-12T22:44:14.194Z,7.53
2022-10-12T22:46:18.222Z,6.35
2022-10-12T22:48:22.665Z,6.53
2022-10-12T22:50:26.402Z,6.95
2022-10-12T22:52:30.041Z,6.95
2022-10-12T22:54:36.665Z,7.55
2022-10-12T22:56:41.195Z,6.57
2022-10-12T22:58:45.266Z,7.57
2022-10-12T23:00:49.725Z,8.10
2022-10-12T23:02:53.512Z,7.88
2022-10-12T23:04:57.464Z,8.05
2022-10-12T23:07:01.352Z,7.35
2022-10-12T23:09:06.318Z,7.28
2022-10-12T23:11:13.759Z,7.55
2022-10-12T23:13:17.374Z,8.20
2022-10-12T23:15:21.255Z,7.72
2022-10-12T23:17:25.466Z,7.93
2022-10-12T23:19:29.916Z,8.07
2022-10-12T23:21:36.122Z,7.60
2022-10-12T23:23:41.355Z,7.75
2022-10-12T23:25:47.621Z,8.38
2022-10-12T23:27:55.318Z,7.70
2022-10-12T23:29:59.019Z,8.10
2022-10-12T23:32:03.011Z,8.88
2022-10-12T23:34:08.265Z,8.45
2022-10-12T23:36:14.652Z,8.68
2022-10-12T23:38:18.791Z,8.10
2022-10-12T23:40:22.649Z,7.78
2022-10-12T23:42:26.909Z,8.60
2022-10-12T23:44:32.555Z,8.95
2022-10-12T23:46:36.424Z,8.63
2022-10-12T23:48:40.635Z,9.10
2022-10-12T23:50:44.578Z,9.60
2022-10-12T23:52:48.219Z,8.82
2022-10-12T23:54:52.027Z,8.95
2022-10-12T23:56:55.933Z,8.68
2022-10-12T23:59:00.887Z,8.65
